sensor_id;sensor_type;location;lat;lon;timestamp;P1;P2;P0
45700;PMS5003;36277;32.852;-116.998;2022-08-06T00:01:51;1.00;1.00;1.00
45700;PMS5003;36277;32.852;-116.998;2022-08-06T00:04:18;1.60;1.60;1.00
45700;PMS5003;36277;32.852;-116.998;2022-08-06T00:06:45;1.40;1.40;1.20
45700;PMS5003;36277;32.852;-116.998;2022-08-06T00:09:11;1.40;1.40;1.00
45700;PMS5003;36277;32.852;-116.998;2022-08-06T00:11:40;2.00;2.00;1.00
45700;PMS5003;36277;32.852;-116.998;2022-08-06T00:14:07;2.20;2.20;2.00
45700;PMS5003;36277;32.852;-116.998;2022-08-06T00:16:34;2.00;2.00;2.00
45700;PMS5003;36277;32.852;-116.998;2022-08-06T00:19:00;2.00;2.00;1.00
45700;PMS5003;36277;32.852;-116.998;2022-08-06T00:21:27;2.00;2.00;2.00
45700;PMS5003;36277;32.852;-116.998;2022-08-06T00:23:53;1.00;1.00;1.00
45700;PMS5003;36277;32.852;-116.998;2022-08-06T00:26:19;1.00;1.00;1.00
45700;PMS5003;36277;32.852;-116.998;2022-08-06T00:28:45;1.00;1.00;1.00
45700;PMS5003;36277;32.852;-116.998;2022-08-06T00:31:11;1.20;1.20;1.00
45700;PMS5003;36277;32.852;-116.998;2022-08-06T00:33:38;0.20;0.20;0.20
45700;PMS5003;36277;32.852;-116.998;2022-08-06T00:36:06;1.00;1.00;1.00
45700;PMS5003;36277;32.852;-116.998;2022-08-06T00:38:33;1.00;1.00;1.00
45700;PMS5003;36277;32.852;-116.998;2022-08-06T00:40:59;1.00;1.00;1.00
45700;PMS5003;36277;32.852;-116.998;2022-08-06T00:43:26;1.00;1.00;1.00
45700;PMS5003;36277;32.852;-116.998;2022-08-06T00:45:53;1.00;1.00;1.00
45700;PMS5003;36277;32.852;-116.998;2022-08-06T00:48:19;1.00;1.00;0.00
45700;PMS5003;36277;32.852;-116.998;2022-08-06T00:50:45;2.00;2.00;1.60
45700;PMS5003;36277;32.852;-116.998;2022-08-06T00:53:12;2.00;2.00;1.20
45700;PMS5003;36277;32.852;-116.998;2022-08-06T00:55:38;1.00;1.00;1.00
45700;PMS5003;36277;32.852;-116.998;2022-08-06T00:58:05;1.00;1.00;1.00
45700;PMS5003;36277;32.852;-116.998;2022-08-06T01:00:33;1.00;1.00;1.00
45700;PMS5003;36277;32.852;-116.998;2022-08-06T01:03:00;1.00;1.00;0.80
45700;PMS5003;36277;32.852;-116.998;2022-08-06T01:05:26;1.00;1.00;1.00
45700;PMS5003;36277;32.852;-116.998;2022-08-06T01:07:52;1.00;1.00;1.00
45700;PMS5003;36277;32.852;-116.998;2022-08-06T01:10:19;1.00;1.00;1.00
45700;PMS5003;36277;32.852;-116.998;2022-08-06T01:12:47;1.00;1.00;1.00
45700;PMS5003;36277;32.852;-116.998;2022-08-06T01:15:13;1.00;1.00;1.00
45700;PMS5003;36277;32.852;-116.998;2022-08-06T01:17:47;1.20;1.20;1.00
45700;PMS5003;36277;32.852;-116.998;2022-08-06T01:20:41;1.00;1.00;0.40
45700;PMS5003;36277;32.852;-116.998;2022-08-06T01:30:57;0.20;0.20;0.00
45700;PMS5003;36277;32.852;-116.998;2022-08-06T01:33:50;0.60;0.60;0.60
45700;PMS5003;36277;32.852;-116.998;2022-08-06T01:36:24;0.00;0.00;0.00
45700;PMS5003;36277;32.852;-116.998;2022-08-06T01:38:57;1.00;1.00;1.00
45700;PMS5003;36277;32.852;-116.998;2022-08-06T01:41:27;1.00;1.00;1.00
45700;PMS5003;36277;32.852;-116.998;2022-08-06T01:44:08;1.00;1.00;1.00
45700;PMS5003;36277;32.852;-116.998;2022-08-06T01:46:37;0.40;0.40;0.00
45700;PMS5003;36277;32.852;-116.998;2022-08-06T01:49:08;1.00;1.00;1.00
45700;PMS5003;36277;32.852;-116.998;2022-08-06T01:51:36;1.00;1.00;1.00
45700;PMS5003;36277;32.852;-116.998;2022-08-06T01:54:05;1.00;1.00;1.00
45700;PMS5003;36277;32.852;-116.998;2022-08-06T01:56:34;1.00;1.00;1.00
45700;PMS5003;36277;32.852;-116.998;2022-08-06T01:59:04;0.60;0.60;0.00
45700;PMS5003;36277;32.852;-116.998;2022-08-06T02:01:32;1.00;1.00;1.00
45700;PMS5003;36277;32.852;-116.998;2022-08-06T02:04:02;1.00;1.00;1.00
45700;PMS5003;36277;32.852;-116.998;2022-08-06T02:06:35;1.00;1.00;0.80
45700;PMS5003;36277;32.852;-116.998;2022-08-06T02:09:08;1.00;1.00;1.00
45700;PMS5003;36277;32.852;-116.998;2022-08-06T02:11:38;2.00;1.20;1.00
45700;PMS5003;36277;32.852;-116.998;2022-08-06T02:14:07;1.00;1.00;0.00
45700;PMS5003;36277;32.852;-116.998;2022-08-06T02:16:36;1.00;1.00;0.80
45700;PMS5003;36277;32.852;-116.998;2022-08-06T02:19:06;0.60;0.60;0.60
45700;PMS5003;36277;32.852;-116.998;2022-08-06T02:21:37;1.20;1.20;1.00
45700;PMS5003;36277;32.852;-116.998;2022-08-06T02:24:06;1.40;1.40;1.00
45700;PMS5003;36277;32.852;-116.998;2022-08-06T02:26:35;2.00;2.00;2.00
45700;PMS5003;36277;32.852;-116.998;2022-08-06T02:29:07;0.80;0.80;0.20
45700;PMS5003;36277;32.852;-116.998;2022-08-06T02:31:36;1.00;1.00;1.00
45700;PMS5003;36277;32.852;-116.998;2022-08-06T02:34:03;2.00;2.00;1.40
45700;PMS5003;36277;32.852;-116.998;2022-08-06T02:36:32;1.00;1.00;1.00
45700;PMS5003;36277;32.852;-116.998;2022-08-06T02:39:03;1.00;1.00;0.80
45700;PMS5003;36277;32.852;-116.998;2022-08-06T02:41:45;0.20;0.20;0.00
45700;PMS5003;36277;32.852;-116.998;2022-08-06T02:46:52;1.60;1.60;1.00
45700;PMS5003;36277;32.852;-116.998;2022-08-06T02:49:33;1.00;1.00;1.00
45700;PMS5003;36277;32.852;-116.998;2022-08-06T02:52:08;0.00;0.00;0.00
45700;PMS5003;36277;32.852;-116.998;2022-08-06T02:54:44;0.00;0.00;0.00
45700;PMS5003;36277;32.852;-116.998;2022-08-06T02:57:22;0.00;0.00;0.00
45700;PMS5003;36277;32.852;-116.998;2022-08-06T02:59:54;1.00;1.00;1.00
45700;PMS5003;36277;32.852;-116.998;2022-08-06T03:02:27;1.20;1.20;1.00
45700;PMS5003;36277;32.852;-116.998;2022-08-06T03:04:56;2.00;2.00;2.00
45700;PMS5003;36277;32.852;-116.998;2022-08-06T03:07:27;0.20;0.20;0.20
45700;PMS5003;36277;32.852;-116.998;2022-08-06T03:09:55;1.00;1.00;1.00
45700;PMS5003;36277;32.852;-116.998;2022-08-06T03:12:24;0.60;0.60;0.60
45700;PMS5003;36277;32.852;-116.998;2022-08-06T03:14:51;1.00;1.00;1.00
45700;PMS5003;36277;32.852;-116.998;2022-08-06T03:17:19;0.00;0.00;0.00
45700;PMS5003;36277;32.852;-116.998;2022-08-06T03:19:46;0.00;0.00;0.00
45700;PMS5003;36277;32.852;-116.998;2022-08-06T03:22:16;0.00;0.00;0.00
45700;PMS5003;36277;32.852;-116.998;2022-08-06T03:24:43;1.40;1.40;1.00
45700;PMS5003;36277;32.852;-116.998;2022-08-06T03:27:11;1.00;1.00;1.00
45700;PMS5003;36277;32.852;-116.998;2022-08-06T03:29:40;1.00;1.00;0.40
45700;PMS5003;36277;32.852;-116.998;2022-08-06T03:32:08;1.20;1.20;1.00
45700;PMS5003;36277;32.852;-116.998;2022-08-06T03:34:37;0.40;0.40;0.40
45700;PMS5003;36277;32.852;-116.998;2022-08-06T03:37:04;0.00;0.00;0.00
45700;PMS5003;36277;32.852;-116.998;2022-08-06T03:39:33;1.40;1.40;1.20
45700;PMS5003;36277;32.852;-116.998;2022-08-06T03:42:02;1.00;1.00;1.00
45700;PMS5003;36277;32.852;-116.998;2022-08-06T03:44:28;1.20;1.20;1.00
45700;PMS5003;36277;32.852;-116.998;2022-08-06T03:46:58;1.20;1.20;1.00
45700;PMS5003;36277;32.852;-116.998;2022-08-06T03:49:32;2.00;2.00;2.00
45700;PMS5003;36277;32.852;-116.998;2022-08-06T03:52:04;0.00;0.00;0.00
45700;PMS5003;36277;32.852;-116.998;2022-08-06T03:54:33;1.20;1.20;1.00
45700;PMS5003;36277;32.852;-116.998;2022-08-06T03:57:06;0.00;0.00;0.00
45700;PMS5003;36277;32.852;-116.998;2022-08-06T03:59:37;1.00;1.00;1.00
45700;PMS5003;36277;32.852;-116.998;2022-08-06T04:02:06;0.00;0.00;0.00
45700;PMS5003;36277;32.852;-116.998;2022-08-06T04:04:34;0.00;0.00;0.00
45700;PMS5003;36277;32.852;-116.998;2022-08-06T04:07:02;1.00;1.00;1.00
45700;PMS5003;36277;32.852;-116.998;2022-08-06T04:09:30;1.00;1.00;1.00
45700;PMS5003;36277;32.852;-116.998;2022-08-06T04:11:59;0.80;0.80;0.00
45700;PMS5003;36277;32.852;-116.998;2022-08-06T04:14:28;1.00;1.00;1.00
45700;PMS5003;36277;32.852;-116.998;2022-08-06T04:16:54;1.00;1.00;0.20
45700;PMS5003;36277;32.852;-116.998;2022-08-06T04:19:21;0.60;0.60;0.00
45700;PMS5003;36277;32.852;-116.998;2022-08-06T04:21:49;1.00;1.00;1.00
45700;PMS5003;36277;32.852;-116.998;2022-08-06T04:24:15;1.00;1.00;1.00
45700;PMS5003;36277;32.852;-116.998;2022-08-06T04:26:43;1.60;1.60;1.60
45700;PMS5003;36277;32.852;-116.998;2022-08-06T04:29:14;1.20;1.20;1.00
45700;PMS5003;36277;32.852;-116.998;2022-08-06T04:31:43;1.00;1.00;1.00
45700;PMS5003;36277;32.852;-116.998;2022-08-06T04:34:11;1.00;1.00;1.00
45700;PMS5003;36277;32.852;-116.998;2022-08-06T04:36:43;1.60;1.60;1.20
45700;PMS5003;36277;32.852;-116.998;2022-08-06T04:39:10;1.00;1.00;1.00
45700;PMS5003;36277;32.852;-116.998;2022-08-06T04:41:36;1.00;1.00;1.00
45700;PMS5003;36277;32.852;-116.998;2022-08-06T04:44:03;0.80;0.80;0.40
45700;PMS5003;36277;32.852;-116.998;2022-08-06T04:46:30;1.00;1.00;1.00
45700;PMS5003;36277;32.852;-116.998;2022-08-06T04:48:57;1.40;1.40;1.00
45700;PMS5003;36277;32.852;-116.998;2022-08-06T04:51:24;1.00;1.00;1.00
45700;PMS5003;36277;32.852;-116.998;2022-08-06T04:53:50;1.40;1.40;1.00
45700;PMS5003;36277;32.852;-116.998;2022-08-06T04:56:16;1.00;1.00;0.80
45700;PMS5003;36277;32.852;-116.998;2022-08-06T04:58:43;0.00;0.00;0.00
45700;PMS5003;36277;32.852;-116.998;2022-08-06T05:01:10;1.00;1.00;1.00
45700;PMS5003;36277;32.852;-116.998;2022-08-06T05:03:36;1.60;1.60;0.80
45700;PMS5003;36277;32.852;-116.998;2022-08-06T05:08:35;0.00;0.00;0.00
45700;PMS5003;36277;32.852;-116.998;2022-08-06T05:13:56;0.00;0.00;0.00
45700;PMS5003;36277;32.852;-116.998;2022-08-06T05:16:27;1.00;1.00;0.80
45700;PMS5003;36277;32.852;-116.998;2022-08-06T05:18:57;0.20;0.20;0.20
45700;PMS5003;36277;32.852;-116.998;2022-08-06T05:21:36;0.00;0.00;0.00
45700;PMS5003;36277;32.852;-116.998;2022-08-06T05:24:04;0.00;0.00;0.00
45700;PMS5003;36277;32.852;-116.998;2022-08-06T05:26:33;0.00;0.00;0.00
45700;PMS5003;36277;32.852;-116.998;2022-08-06T05:28:59;0.00;0.00;0.00
45700;PMS5003;36277;32.852;-116.998;2022-08-06T05:31:30;0.00;0.00;0.00
45700;PMS5003;36277;32.852;-116.998;2022-08-06T05:34:03;0.00;0.00;0.00
45700;PMS5003;36277;32.852;-116.998;2022-08-06T05:36:30;0.00;0.00;0.00
45700;PMS5003;36277;32.852;-116.998;2022-08-06T05:38:56;0.00;0.00;0.00
45700;PMS5003;36277;32.852;-116.998;2022-08-06T05:41:22;0.00;0.00;0.00
45700;PMS5003;36277;32.852;-116.998;2022-08-06T05:43:49;0.00;0.00;0.00
45700;PMS5003;36277;32.852;-116.998;2022-08-06T05:46:16;0.00;0.00;0.00
45700;PMS5003;36277;32.852;-116.998;2022-08-06T05:48:51;0.00;0.00;0.00
45700;PMS5003;36277;32.852;-116.998;2022-08-06T05:51:24;0.00;0.00;0.00
45700;PMS5003;36277;32.852;-116.998;2022-08-06T05:53:59;0.00;0.00;0.00
45700;PMS5003;36277;32.852;-116.998;2022-08-06T05:56:33;0.00;0.00;0.00
45700;PMS5003;36277;32.852;-116.998;2022-08-06T05:59:04;0.00;0.00;0.00
45700;PMS5003;36277;32.852;-116.998;2022-08-06T06:01:32;0.00;0.00;0.00
45700;PMS5003;36277;32.852;-116.998;2022-08-06T06:04:02;0.00;0.00;0.00
45700;PMS5003;36277;32.852;-116.998;2022-08-06T06:06:29;0.00;0.00;0.00
45700;PMS5003;36277;32.852;-116.998;2022-08-06T06:08:55;0.00;0.00;0.00
45700;PMS5003;36277;32.852;-116.998;2022-08-06T06:11:22;0.00;0.00;0.00
45700;PMS5003;36277;32.852;-116.998;2022-08-06T06:13:49;0.00;0.00;0.00
45700;PMS5003;36277;32.852;-116.998;2022-08-06T06:22:12;0.00;0.00;0.00
45700;PMS5003;36277;32.852;-116.998;2022-08-06T06:24:43;0.00;0.00;0.00
45700;PMS5003;36277;32.852;-116.998;2022-08-06T06:27:24;0.00;0.00;0.00
45700;PMS5003;36277;32.852;-116.998;2022-08-06T06:30:03;0.40;0.40;0.00
45700;PMS5003;36277;32.852;-116.998;2022-08-06T06:32:37;0.00;0.00;0.00
45700;PMS5003;36277;32.852;-116.998;2022-08-06T06:35:15;0.00;0.00;0.00
45700;PMS5003;36277;32.852;-116.998;2022-08-06T06:41:03;0.00;0.00;0.00
45700;PMS5003;36277;32.852;-116.998;2022-08-06T06:43:42;0.00;0.00;0.00
45700;PMS5003;36277;32.852;-116.998;2022-08-06T06:46:17;0.00;0.00;0.00
45700;PMS5003;36277;32.852;-116.998;2022-08-06T06:48:51;0.00;0.00;0.00
45700;PMS5003;36277;32.852;-116.998;2022-08-06T06:51:36;0.00;0.00;0.00
45700;PMS5003;36277;32.852;-116.998;2022-08-06T06:54:16;0.00;0.00;0.00
45700;PMS5003;36277;32.852;-116.998;2022-08-06T06:56:47;0.00;0.00;0.00
45700;PMS5003;36277;32.852;-116.998;2022-08-06T06:59:23;0.00;0.00;0.00
45700;PMS5003;36277;32.852;-116.998;2022-08-06T07:01:59;0.00;0.00;0.00
45700;PMS5003;36277;32.852;-116.998;2022-08-06T07:04:28;0.00;0.00;0.00
45700;PMS5003;36277;32.852;-116.998;2022-08-06T07:06:57;0.00;0.00;0.00
45700;PMS5003;36277;32.852;-116.998;2022-08-06T07:09:25;0.00;0.00;0.00
45700;PMS5003;36277;32.852;-116.998;2022-08-06T07:11:55;0.00;0.00;0.00
45700;PMS5003;36277;32.852;-116.998;2022-08-06T07:14:23;0.20;0.20;0.20
45700;PMS5003;36277;32.852;-116.998;2022-08-06T07:16:51;0.00;0.00;0.00
45700;PMS5003;36277;32.852;-116.998;2022-08-06T07:19:20;0.00;0.00;0.00
45700;PMS5003;36277;32.852;-116.998;2022-08-06T07:21:49;0.00;0.00;0.00
45700;PMS5003;36277;32.852;-116.998;2022-08-06T07:24:17;0.40;0.40;0.00
45700;PMS5003;36277;32.852;-116.998;2022-08-06T07:26:47;0.00;0.00;0.00
45700;PMS5003;36277;32.852;-116.998;2022-08-06T07:29:15;0.00;0.00;0.00
45700;PMS5003;36277;32.852;-116.998;2022-08-06T07:31:43;0.00;0.00;0.00
45700;PMS5003;36277;32.852;-116.998;2022-08-06T07:34:12;0.00;0.00;0.00
45700;PMS5003;36277;32.852;-116.998;2022-08-06T07:36:42;0.00;0.00;0.00
45700;PMS5003;36277;32.852;-116.998;2022-08-06T07:39:20;0.00;0.00;0.00
45700;PMS5003;36277;32.852;-116.998;2022-08-06T07:41:50;0.00;0.00;0.00
45700;PMS5003;36277;32.852;-116.998;2022-08-06T07:44:22;0.00;0.00;0.00
45700;PMS5003;36277;32.852;-116.998;2022-08-06T07:46:51;0.00;0.00;0.00
45700;PMS5003;36277;32.852;-116.998;2022-08-06T07:49:23;0.00;0.00;0.00
45700;PMS5003;36277;32.852;-116.998;2022-08-06T07:51:55;0.00;0.00;0.00
45700;PMS5003;36277;32.852;-116.998;2022-08-06T07:54:23;0.00;0.00;0.00
45700;PMS5003;36277;32.852;-116.998;2022-08-06T07:56:54;0.00;0.00;0.00
45700;PMS5003;36277;32.852;-116.998;2022-08-06T07:59:22;0.00;0.00;0.00
45700;PMS5003;36277;32.852;-116.998;2022-08-06T08:01:49;0.00;0.00;0.00
45700;PMS5003;36277;32.852;-116.998;2022-08-06T08:04:17;0.00;0.00;0.00
45700;PMS5003;36277;32.852;-116.998;2022-08-06T08:07:03;0.00;0.00;0.00
45700;PMS5003;36277;32.852;-116.998;2022-08-06T08:09:32;0.00;0.00;0.00
45700;PMS5003;36277;32.852;-116.998;2022-08-06T08:12:01;0.00;0.00;0.00
45700;PMS5003;36277;32.852;-116.998;2022-08-06T08:14:28;0.00;0.00;0.00
45700;PMS5003;36277;32.852;-116.998;2022-08-06T08:16:55;0.00;0.00;0.00
45700;PMS5003;36277;32.852;-116.998;2022-08-06T08:19:29;0.00;0.00;0.00
45700;PMS5003;36277;32.852;-116.998;2022-08-06T08:22:00;0.00;0.00;0.00
45700;PMS5003;36277;32.852;-116.998;2022-08-06T08:24:27;0.00;0.00;0.00
45700;PMS5003;36277;32.852;-116.998;2022-08-06T08:26:56;0.00;0.00;0.00
45700;PMS5003;36277;32.852;-116.998;2022-08-06T08:29:23;0.00;0.00;0.00
45700;PMS5003;36277;32.852;-116.998;2022-08-06T08:31:50;0.00;0.00;0.00
45700;PMS5003;36277;32.852;-116.998;2022-08-06T08:34:16;0.00;0.00;0.00
45700;PMS5003;36277;32.852;-116.998;2022-08-06T08:36:43;0.00;0.00;0.00
45700;PMS5003;36277;32.852;-116.998;2022-08-06T08:39:09;0.00;0.00;0.00
45700;PMS5003;36277;32.852;-116.998;2022-08-06T08:42:18;0.00;0.00;0.00
45700;PMS5003;36277;32.852;-116.998;2022-08-06T08:44:39;0.00;0.00;0.00
45700;PMS5003;36277;32.852;-116.998;2022-08-06T08:47:06;0.00;0.00;0.00
45700;PMS5003;36277;32.852;-116.998;2022-08-06T08:49:37;0.00;0.00;0.00
45700;PMS5003;36277;32.852;-116.998;2022-08-06T08:52:12;0.00;0.00;0.00
45700;PMS5003;36277;32.852;-116.998;2022-08-06T08:55:03;1.00;1.00;0.80
45700;PMS5003;36277;32.852;-116.998;2022-08-06T08:57:32;0.60;0.60;0.00
45700;PMS5003;36277;32.852;-116.998;2022-08-06T09:00:00;0.00;0.00;0.00
45700;PMS5003;36277;32.852;-116.998;2022-08-06T09:02:27;0.40;0.40;0.20
45700;PMS5003;36277;32.852;-116.998;2022-08-06T09:04:54;0.80;0.80;0.40
45700;PMS5003;36277;32.852;-116.998;2022-08-06T09:07:20;0.00;0.00;0.00
45700;PMS5003;36277;32.852;-116.998;2022-08-06T09:09:46;0.00;0.00;0.00
45700;PMS5003;36277;32.852;-116.998;2022-08-06T09:12:14;0.60;0.60;0.00
45700;PMS5003;36277;32.852;-116.998;2022-08-06T09:14:40;0.00;0.00;0.00
45700;PMS5003;36277;32.852;-116.998;2022-08-06T09:17:09;0.00;0.00;0.00
45700;PMS5003;36277;32.852;-116.998;2022-08-06T09:19:35;0.00;0.00;0.00
45700;PMS5003;36277;32.852;-116.998;2022-08-06T09:22:01;0.00;0.00;0.00
45700;PMS5003;36277;32.852;-116.998;2022-08-06T09:24:29;0.00;0.00;0.00
45700;PMS5003;36277;32.852;-116.998;2022-08-06T09:27:11;0.00;0.00;0.00
45700;PMS5003;36277;32.852;-116.998;2022-08-06T09:29:51;0.20;0.20;0.00
45700;PMS5003;36277;32.852;-116.998;2022-08-06T09:35:20;0.20;0.20;0.00
45700;PMS5003;36277;32.852;-116.998;2022-08-06T09:37:59;0.00;0.00;0.00
45700;PMS5003;36277;32.852;-116.998;2022-08-06T09:40:27;0.00;0.00;0.00
45700;PMS5003;36277;32.852;-116.998;2022-08-06T09:42:53;0.00;0.00;0.00
45700;PMS5003;36277;32.852;-116.998;2022-08-06T09:45:21;0.00;0.00;0.00
45700;PMS5003;36277;32.852;-116.998;2022-08-06T09:47:49;0.00;0.00;0.00
45700;PMS5003;36277;32.852;-116.998;2022-08-06T09:53:10;1.00;1.00;1.00
45700;PMS5003;36277;32.852;-116.998;2022-08-06T09:55:38;0.00;0.00;0.00
45700;PMS5003;36277;32.852;-116.998;2022-08-06T09:58:05;0.00;0.00;0.00
45700;PMS5003;36277;32.852;-116.998;2022-08-06T10:00:32;0.00;0.00;0.00
45700;PMS5003;36277;32.852;-116.998;2022-08-06T10:03:00;0.00;0.00;0.00
45700;PMS5003;36277;32.852;-116.998;2022-08-06T10:05:30;0.00;0.00;0.00
45700;PMS5003;36277;32.852;-116.998;2022-08-06T10:08:09;1.00;1.00;1.00
45700;PMS5003;36277;32.852;-116.998;2022-08-06T10:15:55;0.00;0.00;0.00
45700;PMS5003;36277;32.852;-116.998;2022-08-06T10:21:05;0.00;0.00;0.00
45700;PMS5003;36277;32.852;-116.998;2022-08-06T10:23:46;1.00;1.00;1.00
45700;PMS5003;36277;32.852;-116.998;2022-08-06T10:26:16;0.00;0.00;0.00
45700;PMS5003;36277;32.852;-116.998;2022-08-06T10:28:46;0.00;0.00;0.00
45700;PMS5003;36277;32.852;-116.998;2022-08-06T10:31:14;0.00;0.00;0.00
45700;PMS5003;36277;32.852;-116.998;2022-08-06T10:36:40;0.00;0.00;0.00
45700;PMS5003;36277;32.852;-116.998;2022-08-06T10:39:10;0.40;0.40;0.40
45700;PMS5003;36277;32.852;-116.998;2022-08-06T10:41:40;0.00;0.00;0.00
45700;PMS5003;36277;32.852;-116.998;2022-08-06T10:44:09;0.00;0.00;0.00
45700;PMS5003;36277;32.852;-116.998;2022-08-06T10:46:36;0.00;0.00;0.00
45700;PMS5003;36277;32.852;-116.998;2022-08-06T10:49:02;0.00;0.00;0.00
45700;PMS5003;36277;32.852;-116.998;2022-08-06T10:51:31;0.00;0.00;0.00
45700;PMS5003;36277;32.852;-116.998;2022-08-06T10:53:58;0.20;0.20;0.20
45700;PMS5003;36277;32.852;-116.998;2022-08-06T10:56:25;0.60;0.60;0.40
45700;PMS5003;36277;32.852;-116.998;2022-08-06T10:58:53;0.00;0.00;0.00
45700;PMS5003;36277;32.852;-116.998;2022-08-06T11:01:43;0.00;0.00;0.00
45700;PMS5003;36277;32.852;-116.998;2022-08-06T11:04:15;0.00;0.00;0.00
45700;PMS5003;36277;32.852;-116.998;2022-08-06T11:15:18;0.00;0.00;0.00
45700;PMS5003;36277;32.852;-116.998;2022-08-06T11:17:50;0.20;0.20;0.20
45700;PMS5003;36277;32.852;-116.998;2022-08-06T11:23:27;0.00;0.00;0.00
45700;PMS5003;36277;32.852;-116.998;2022-08-06T11:25:56;0.00;0.00;0.00
45700;PMS5003;36277;32.852;-116.998;2022-08-06T11:30:55;0.00;0.00;0.00
45700;PMS5003;36277;32.852;-116.998;2022-08-06T11:36:02;0.60;0.60;0.20
45700;PMS5003;36277;32.852;-116.998;2022-08-06T11:41:16;0.00;0.00;0.00
45700;PMS5003;36277;32.852;-116.998;2022-08-06T11:46:24;0.00;0.00;0.00
45700;PMS5003;36277;32.852;-116.998;2022-08-06T11:51:48;0.80;0.80;0.00
45700;PMS5003;36277;32.852;-116.998;2022-08-06T11:55:03;0.00;0.00;0.00
45700;PMS5003;36277;32.852;-116.998;2022-08-06T11:59:45;0.00;0.00;0.00
45700;PMS5003;36277;32.852;-116.998;2022-08-06T12:02:14;0.20;0.20;0.00
45700;PMS5003;36277;32.852;-116.998;2022-08-06T12:04:43;0.20;0.20;0.00
45700;PMS5003;36277;32.852;-116.998;2022-08-06T12:07:16;0.00;0.00;0.00
45700;PMS5003;36277;32.852;-116.998;2022-08-06T12:09:44;0.00;0.00;0.00
45700;PMS5003;36277;32.852;-116.998;2022-08-06T12:14:54;0.00;0.00;0.00
45700;PMS5003;36277;32.852;-116.998;2022-08-06T12:17:22;0.20;0.20;0.00
45700;PMS5003;36277;32.852;-116.998;2022-08-06T12:19:51;0.40;0.40;0.00
45700;PMS5003;36277;32.852;-116.998;2022-08-06T12:22:19;0.60;0.60;0.00
45700;PMS5003;36277;32.852;-116.998;2022-08-06T12:24:50;0.00;0.00;0.00
45700;PMS5003;36277;32.852;-116.998;2022-08-06T12:27:20;1.00;1.00;0.20
45700;PMS5003;36277;32.852;-116.998;2022-08-06T12:29:47;1.00;1.00;1.00
45700;PMS5003;36277;32.852;-116.998;2022-08-06T12:32:25;0.00;0.00;0.00
45700;PMS5003;36277;32.852;-116.998;2022-08-06T12:34:54;0.00;0.00;0.00
45700;PMS5003;36277;32.852;-116.998;2022-08-06T12:37:33;0.00;0.00;0.00
45700;PMS5003;36277;32.852;-116.998;2022-08-06T12:40:06;0.60;0.60;0.60
45700;PMS5003;36277;32.852;-116.998;2022-08-06T12:45:26;0.80;0.80;0.40
45700;PMS5003;36277;32.852;-116.998;2022-08-06T12:48:00;1.00;1.00;1.00
45700;PMS5003;36277;32.852;-116.998;2022-08-06T12:50:31;1.00;1.00;1.00
45700;PMS5003;36277;32.852;-116.998;2022-08-06T12:53:10;0.00;0.00;0.00
45700;PMS5003;36277;32.852;-116.998;2022-08-06T12:55:48;0.80;0.80;0.80
45700;PMS5003;36277;32.852;-116.998;2022-08-06T12:58:19;0.80;0.80;0.80
45700;PMS5003;36277;32.852;-116.998;2022-08-06T13:00:50;0.00;0.00;0.00
45700;PMS5003;36277;32.852;-116.998;2022-08-06T13:03:19;1.00;1.00;0.00
45700;PMS5003;36277;32.852;-116.998;2022-08-06T13:05:48;0.20;0.20;0.20
45700;PMS5003;36277;32.852;-116.998;2022-08-06T13:08:15;0.40;0.40;0.40
45700;PMS5003;36277;32.852;-116.998;2022-08-06T13:10:48;0.40;0.40;0.00
45700;PMS5003;36277;32.852;-116.998;2022-08-06T13:13:15;0.40;0.40;0.40
45700;PMS5003;36277;32.852;-116.998;2022-08-06T13:15:42;0.60;0.60;0.40
45700;PMS5003;36277;32.852;-116.998;2022-08-06T13:18:12;0.00;0.00;0.00
45700;PMS5003;36277;32.852;-116.998;2022-08-06T13:23:26;0.80;0.80;0.00
45700;PMS5003;36277;32.852;-116.998;2022-08-06T13:25:54;1.00;1.00;1.00
45700;PMS5003;36277;32.852;-116.998;2022-08-06T13:28:21;0.00;0.00;0.00
45700;PMS5003;36277;32.852;-116.998;2022-08-06T13:30:49;0.00;0.00;0.00
45700;PMS5003;36277;32.852;-116.998;2022-08-06T13:33:17;0.00;0.00;0.00
45700;PMS5003;36277;32.852;-116.998;2022-08-06T13:35:49;1.00;1.00;0.60
45700;PMS5003;36277;32.852;-116.998;2022-08-06T13:38:33;1.00;1.00;1.00
45700;PMS5003;36277;32.852;-116.998;2022-08-06T13:41:02;0.00;0.00;0.00
45700;PMS5003;36277;32.852;-116.998;2022-08-06T13:43:36;1.00;1.00;1.00
45700;PMS5003;36277;32.852;-116.998;2022-08-06T13:46:07;0.00;0.00;0.00
45700;PMS5003;36277;32.852;-116.998;2022-08-06T13:48:35;0.00;0.00;0.00
45700;PMS5003;36277;32.852;-116.998;2022-08-06T13:51:02;0.00;0.00;0.00
45700;PMS5003;36277;32.852;-116.998;2022-08-06T13:53:28;1.00;1.00;0.00
45700;PMS5003;36277;32.852;-116.998;2022-08-06T13:55:54;0.00;0.00;0.00
45700;PMS5003;36277;32.852;-116.998;2022-08-06T13:58:20;0.00;0.00;0.00
45700;PMS5003;36277;32.852;-116.998;2022-08-06T14:00:47;1.00;1.00;1.00
45700;PMS5003;36277;32.852;-116.998;2022-08-06T14:03:13;0.00;0.00;0.00
45700;PMS5003;36277;32.852;-116.998;2022-08-06T14:05:39;0.00;0.00;0.00
45700;PMS5003;36277;32.852;-116.998;2022-08-06T14:08:05;0.60;0.60;0.60
45700;PMS5003;36277;32.852;-116.998;2022-08-06T14:10:31;1.00;1.00;0.25
45700;PMS5003;36277;32.852;-116.998;2022-08-06T14:12:58;0.00;0.00;0.00
45700;PMS5003;36277;32.852;-116.998;2022-08-06T14:15:43;0.00;0.00;0.00
45700;PMS5003;36277;32.852;-116.998;2022-08-06T14:18:11;0.60;0.60;0.00
45700;PMS5003;36277;32.852;-116.998;2022-08-06T14:20:37;0.00;0.00;0.00
45700;PMS5003;36277;32.852;-116.998;2022-08-06T14:23:04;0.20;0.20;0.20
45700;PMS5003;36277;32.852;-116.998;2022-08-06T14:25:30;0.00;0.00;0.00
45700;PMS5003;36277;32.852;-116.998;2022-08-06T14:27:56;0.00;0.00;0.00
45700;PMS5003;36277;32.852;-116.998;2022-08-06T14:30:23;0.00;0.00;0.00
45700;PMS5003;36277;32.852;-116.998;2022-08-06T14:32:49;1.00;1.00;0.20
45700;PMS5003;36277;32.852;-116.998;2022-08-06T14:35:16;1.00;1.00;0.40
45700;PMS5003;36277;32.852;-116.998;2022-08-06T14:37:43;0.00;0.00;0.00
45700;PMS5003;36277;32.852;-116.998;2022-08-06T14:40:10;1.00;1.00;0.60
45700;PMS5003;36277;32.852;-116.998;2022-08-06T14:42:38;1.00;1.00;1.00
45700;PMS5003;36277;32.852;-116.998;2022-08-06T14:45:23;1.00;1.00;1.00
45700;PMS5003;36277;32.852;-116.998;2022-08-06T14:47:50;1.00;1.00;1.00
45700;PMS5003;36277;32.852;-116.998;2022-08-06T14:50:17;1.80;1.80;1.00
45700;PMS5003;36277;32.852;-116.998;2022-08-06T14:52:44;0.00;0.00;0.00
45700;PMS5003;36277;32.852;-116.998;2022-08-06T14:55:11;2.00;2.00;1.25
45700;PMS5003;36277;32.852;-116.998;2022-08-06T14:57:39;2.25;2.25;2.00
45700;PMS5003;36277;32.852;-116.998;2022-08-06T15:00:06;2.00;2.00;2.00
45700;PMS5003;36277;32.852;-116.998;2022-08-06T15:02:33;3.00;3.00;2.40
45700;PMS5003;36277;32.852;-116.998;2022-08-06T15:05:00;1.80;1.80;1.00
45700;PMS5003;36277;32.852;-116.998;2022-08-06T15:07:26;2.40;2.40;1.80
45700;PMS5003;36277;32.852;-116.998;2022-08-06T15:09:53;2.80;2.80;2.00
45700;PMS5003;36277;32.852;-116.998;2022-08-06T15:12:19;3.00;3.00;2.00
45700;PMS5003;36277;32.852;-116.998;2022-08-06T15:14:45;2.80;2.80;2.00
45700;PMS5003;36277;32.852;-116.998;2022-08-06T15:17:12;2.20;2.20;2.00
45700;PMS5003;36277;32.852;-116.998;2022-08-06T15:19:38;3.00;3.00;3.00